sensor_id;sensor_type;location;lat;lon;timestamp;temperature;humidity
65559;DHT22;52203;51.998;5.140;2023-02-15T09:56:30;5.01;118.99
65559;DHT22;52203;51.998;5.140;2023-02-15T09:59:02;5.39;118.99
65559;DHT22;52203;51.998;5.140;2023-02-15T10:07:22;5.43;118.99
65559;DHT22;52203;51.998;5.140;2023-02-15T10:10:08;6.11;118.99
65559;DHT22;52203;51.998;5.140;2023-02-15T10:13:00;6.29;118.99
65559;DHT22;52203;51.998;5.140;2023-02-15T11:06:19;6.89;118.99
65559;DHT22;52203;51.998;5.140;2023-02-15T11:08:49;5.89;118.99
65559;DHT22;52203;51.998;5.140;2023-02-15T11:11:30;6.73;118.99
65559;DHT22;52203;51.998;5.140;2023-02-15T11:14:01;6.29;118.99
65559;DHT22;52203;51.998;5.140;2023-02-15T11:16:32;6.75;118.99
65559;DHT22;52203;51.998;5.140;2023-02-15T11:19:13;7.31;118.99
65559;DHT22;52203;51.998;5.140;2023-02-15T11:21:45;8.48;118.99
65559;DHT22;52203;51.998;5.140;2023-02-15T11:24:14;7.30;118.99
65559;DHT22;52203;51.998;5.140;2023-02-15T11:26:54;8.77;118.99
65559;DHT22;52203;51.998;5.140;2023-02-15T11:29:33;8.74;118.99
65559;DHT22;52203;51.998;5.140;2023-02-15T11:32:03;8.22;118.99
65559;DHT22;52203;51.998;5.140;2023-02-15T11:34:44;8.09;118.99
65559;DHT22;52203;51.998;5.140;2023-02-15T11:37:16;6.70;118.99
65559;DHT22;52203;51.998;5.140;2023-02-15T11:39:43;7.33;118.99
65559;DHT22;52203;51.998;5.140;2023-02-15T11:42:14;7.22;118.99
65559;DHT22;52203;51.998;5.140;2023-02-15T11:44:58;6.56;118.99
65559;DHT22;52203;51.998;5.140;2023-02-15T11:47:25;7.05;118.99
65559;DHT22;52203;51.998;5.140;2023-02-15T11:49:51;8.74;118.99
65559;DHT22;52203;51.998;5.140;2023-02-15T11:52:17;7.23;118.99
65559;DHT22;52203;51.998;5.140;2023-02-15T11:54:50;8.00;118.99
65559;DHT22;52203;51.998;5.140;2023-02-15T11:57:31;7.77;118.99
65559;DHT22;52203;51.998;5.140;2023-02-15T12:00:06;7.78;118.99
65559;DHT22;52203;51.998;5.140;2023-02-15T12:02:37;8.18;118.99
65559;DHT22;52203;51.998;5.140;2023-02-15T12:05:12;7.62;118.99
65559;DHT22;52203;51.998;5.140;2023-02-15T12:07:52;7.27;118.99
65559;DHT22;52203;51.998;5.140;2023-02-15T12:10:25;7.02;118.99
65559;DHT22;52203;51.998;5.140;2023-02-15T12:16:11;10.81;118.99
65559;DHT22;52203;51.998;5.140;2023-02-15T12:18:40;10.18;118.99
65559;DHT22;52203;51.998;5.140;2023-02-15T12:21:12;10.57;118.99
65559;DHT22;52203;51.998;5.140;2023-02-15T12:26:07;8.90;118.99
65559;DHT22;52203;51.998;5.140;2023-02-15T12:28:39;8.75;118.99
65559;DHT22;52203;51.998;5.140;2023-02-15T12:31:39;8.63;118.99
65559;DHT22;52203;51.998;5.140;2023-02-15T12:34:22;8.55;118.99
65559;DHT22;52203;51.998;5.140;2023-02-15T12:40:44;8.90;118.99
65559;DHT22;52203;51.998;5.140;2023-02-15T12:47:18;7.55;118.99
65559;DHT22;52203;51.998;5.140;2023-02-15T12:50:35;7.39;118.99
65559;DHT22;52203;51.998;5.140;2023-02-15T12:53:21;7.26;118.99
65559;DHT22;52203;51.998;5.140;2023-02-15T12:56:53;6.74;118.99
65559;DHT22;52203;51.998;5.140;2023-02-15T12:59:24;7.45;118.99
65559;DHT22;52203;51.998;5.140;2023-02-15T13:01:52;7.01;118.99
65559;DHT22;52203;51.998;5.140;2023-02-15T13:04:32;7.54;118.99
65559;DHT22;52203;51.998;5.140;2023-02-15T13:07:02;7.22;118.99
65559;DHT22;52203;51.998;5.140;2023-02-15T13:09:40;7.05;118.99
65559;DHT22;52203;51.998;5.140;2023-02-15T13:14:55;7.54;118.99
65559;DHT22;52203;51.998;5.140;2023-02-15T13:17:28;7.85;118.99
65559;DHT22;52203;51.998;5.140;2023-02-15T13:23:38;7.01;118.99
65559;DHT22;52203;51.998;5.140;2023-02-15T13:26:11;7.11;118.99
65559;DHT22;52203;51.998;5.140;2023-02-15T13:28:42;7.16;118.99
65559;DHT22;52203;51.998;5.140;2023-02-15T13:31:15;7.54;118.99
65559;DHT22;52203;51.998;5.140;2023-02-15T13:33:46;7.65;118.99
65559;DHT22;52203;51.998;5.140;2023-02-15T13:42:05;7.64;118.99
65559;DHT22;52203;51.998;5.140;2023-02-15T13:44:48;7.61;118.99
65559;DHT22;52203;51.998;5.140;2023-02-15T13:51:05;6.93;118.99
65559;DHT22;52203;51.998;5.140;2023-02-15T13:56:56;7.00;118.99
65559;DHT22;52203;51.998;5.140;2023-02-15T14:02:28;6.80;118.99
65559;DHT22;52203;51.998;5.140;2023-02-15T14:05:04;6.40;118.99
65559;DHT22;52203;51.998;5.140;2023-02-15T14:10:43;6.51;118.99
65559;DHT22;52203;51.998;5.140;2023-02-15T14:16:39;6.41;118.99
65559;DHT22;52203;51.998;5.140;2023-02-15T14:22:29;6.33;118.99
65559;DHT22;52203;51.998;5.140;2023-02-15T14:30:03;6.70;118.99
65559;DHT22;52203;51.998;5.140;2023-02-15T14:32:41;6.61;118.99
65559;DHT22;52203;51.998;5.140;2023-02-15T14:35:30;6.51;118.99
65559;DHT22;52203;51.998;5.140;2023-02-15T14:40:50;6.36;118.99
